createdAt,value
2022-09-27T00:00:42.005Z,6.97
2022-09-27T00:03:10.202Z,8.50
2022-09-27T00:05:37.373Z,9.03
2022-09-27T00:08:04.348Z,10.43
2022-09-27T00:10:31.473Z,9.33
2022-09-27T00:12:58.643Z,11.63
2022-09-27T00:15:25.369Z,10.40
2022-09-27T00:17:52.195Z,10.77
2022-09-27T00:20:20.570Z,10.50
2022-09-27T00:22:48.164Z,10.73
2022-09-27T00:25:15.492Z,10.67
2022-09-27T00:27:42.364Z,10.77
2022-09-27T00:30:10.182Z,9.90
2022-09-27T00:32:37.000Z,11.20
2022-09-27T00:35:03.969Z,11.17
2022-09-27T00:37:30.560Z,10.93
2022-09-27T00:39:57.301Z,10.37
2022-09-27T00:42:23.961Z,10.50
2022-09-27T00:45:16.264Z,11.90
2022-09-27T00:47:51.293Z,9.20
2022-09-27T00:50:37.657Z,8.90
2022-09-27T00:53:17.866Z,7.80
2022-09-27T00:55:56.105Z,7.13
2022-09-27T00:58:30.132Z,7.90
2022-09-27T01:01:02.504Z,7.23
2022-09-27T01:03:48.945Z,7.73
2022-09-27T01:06:18.301Z,8.10
2022-09-27T01:08:44.893Z,7.10
2022-09-27T01:11:33.977Z,6.30
2022-09-27T01:14:37.893Z,8.97
2022-09-27T01:17:26.581Z,8.90
2022-09-27T01:20:26.658Z,9.30
2022-09-27T01:23:15.340Z,9.63
2022-09-27T01:25:57.170Z,9.67
2022-09-27T01:28:45.455Z,10.97
2022-09-27T01:31:35.005Z,11.20
2022-09-27T01:34:19.054Z,11.33
2022-09-27T01:37:07.990Z,10.90
2022-09-27T01:39:51.163Z,10.17
2022-09-27T01:42:40.512Z,8.67
2022-09-27T01:45:21.601Z,8.50
2022-09-27T01:48:07.682Z,8.63
2022-09-27T01:50:54.676Z,8.47
2022-09-27T01:53:42.785Z,8.70
2022-09-27T01:56:57.582Z,7.57
2022-09-27T01:59:40.576Z,6.27
2022-09-27T02:02:33.744Z,7.20
2022-09-27T02:05:20.155Z,8.50
2022-09-27T02:07:56.393Z,7.73
2022-09-27T02:10:32.855Z,8.33
2022-09-27T02:13:30.045Z,7.67
2022-09-27T02:16:28.711Z,8.10
2022-09-27T02:19:35.839Z,7.57
2022-09-27T02:22:11.839Z,6.90
2022-09-27T02:24:56.827Z,6.10
2022-09-27T02:27:36.919Z,5.63
2022-09-27T02:30:14.216Z,6.30
2022-09-27T02:32:43.625Z,6.30
2022-09-27T02:35:25.238Z,7.70
2022-09-27T02:37:52.074Z,5.83
2022-09-27T02:40:19.937Z,6.80
2022-09-27T02:42:46.984Z,7.27
2022-09-27T02:45:15.848Z,7.00
2022-09-27T02:48:11.221Z,7.37
2022-09-27T02:51:04.809Z,6.93
2022-09-27T02:53:59.892Z,8.50
2022-09-27T02:57:01.635Z,7.50
2022-09-27T03:00:07.182Z,8.40
2022-09-27T03:03:09.845Z,8.27
2022-09-27T03:05:57.477Z,8.80
2022-09-27T03:08:24.667Z,9.87
2022-09-27T03:10:51.779Z,9.10
2022-09-27T03:13:18.597Z,10.27
2022-09-27T03:15:46.319Z,11.17
2022-09-27T03:18:35.796Z,11.40
2022-09-27T03:21:29.126Z,10.30
2022-09-27T03:23:55.721Z,11.47
2022-09-27T03:26:22.698Z,11.67
2022-09-27T03:28:49.314Z,11.27
2022-09-27T03:31:15.958Z,12.27
2022-09-27T03:34:05.487Z,11.63
2022-09-27T03:36:32.666Z,12.70
2022-09-27T03:38:59.347Z,12.30
2022-09-27T03:41:25.952Z,10.73
2022-09-27T03:43:52.629Z,13.77
2022-09-27T03:46:19.792Z,12.30
2022-09-27T03:48:46.492Z,10.47
2022-09-27T03:51:13.167Z,11.30
2022-09-27T03:53:39.996Z,11.13
2022-09-27T03:56:06.787Z,12.97
2022-09-27T03:58:34.044Z,10.77
2022-09-27T04:01:01.316Z,10.40
2022-09-27T04:03:28.701Z,10.40
2022-09-27T04:06:13.921Z,9.63
2022-09-27T04:08:44.080Z,9.57
2022-09-27T04:11:10.867Z,9.07
2022-09-27T04:13:39.505Z,9.17
2022-09-27T04:16:07.768Z,9.87
2022-09-27T04:18:51.195Z,10.30
2022-09-27T04:21:43.279Z,11.80
2022-09-27T04:24:11.872Z,13.47
2022-09-27T04:26:40.037Z,11.17
2022-09-27T04:29:14.218Z,11.07
2022-09-27T04:31:47.718Z,9.97
2022-09-27T04:34:50.272Z,9.50
2022-09-27T04:37:22.143Z,9.20
2022-09-27T04:39:50.486Z,8.97
2022-09-27T04:42:17.696Z,9.27
2022-09-27T04:44:44.581Z,8.67
2022-09-27T04:47:12.240Z,9.33
2022-09-27T04:49:38.905Z,9.37
2022-09-27T04:52:06.004Z,10.27
2022-09-27T04:54:32.742Z,9.00
2022-09-27T04:57:09.527Z,8.60
2022-09-27T04:59:37.441Z,10.10
2022-09-27T05:02:04.314Z,9.80
2022-09-27T05:04:59.176Z,7.17
2022-09-27T05:07:29.550Z,7.47
2022-09-27T05:10:02.894Z,9.77
2022-09-27T05:12:30.325Z,8.67
2022-09-27T05:15:00.229Z,8.07
2022-09-27T05:17:35.548Z,9.10
2022-09-27T05:20:40.120Z,9.00
2022-09-27T05:23:16.620Z,7.73
2022-09-27T05:25:43.619Z,9.43
2022-09-27T05:28:10.824Z,9.80
2022-09-27T05:30:37.491Z,9.13
2022-09-27T05:33:08.536Z,8.70
2022-09-27T05:35:54.572Z,8.97
2022-09-27T05:38:25.192Z,9.80
2022-09-27T05:40:55.071Z,8.97
2022-09-27T05:43:21.753Z,9.40
2022-09-27T05:45:50.162Z,8.33
2022-09-27T05:48:19.058Z,9.17
2022-09-27T05:50:53.719Z,6.90
2022-09-27T05:53:20.519Z,7.80
2022-09-27T05:55:47.946Z,7.13
2022-09-27T05:58:16.302Z,7.17
2022-09-27T06:01:01.177Z,5.53
2022-09-27T06:03:48.086Z,6.37
2022-09-27T06:06:47.533Z,6.40
2022-09-27T06:09:16.913Z,4.67
2022-09-27T06:11:46.007Z,4.67
2022-09-27T06:14:15.447Z,3.97
2022-09-27T06:17:06.128Z,5.03
2022-09-27T06:19:35.651Z,3.57
2022-09-27T06:22:02.436Z,3.50
2022-09-27T06:24:38.208Z,3.73
2022-09-27T06:27:10.964Z,3.87
2022-09-27T06:29:48.884Z,3.90
2022-09-27T06:32:29.846Z,3.67
2022-09-27T06:35:11.545Z,4.37
2022-09-27T06:37:38.177Z,4.10
2022-09-27T06:40:05.285Z,3.27
2022-09-27T06:43:02.353Z,4.57
2022-09-27T06:45:48.238Z,4.47
2022-09-27T06:48:37.407Z,4.10
2022-09-27T06:51:15.736Z,5.10
2022-09-27T06:53:43.431Z,5.67
2022-09-27T06:56:10.049Z,6.70
2022-09-27T06:59:07.381Z,7.70
2022-09-27T07:01:45.452Z,7.57
2022-09-27T07:04:50.776Z,8.20
2022-09-27T07:07:28.233Z,7.83
2022-09-27T07:09:54.866Z,7.77
2022-09-27T07:12:23.056Z,8.03
2022-09-27T07:14:49.720Z,7.60
2022-09-27T07:17:17.898Z,8.37
2022-09-27T07:19:47.165Z,8.07
2022-09-27T07:22:14.006Z,6.37
2022-09-27T07:24:43.231Z,7.23
2022-09-27T07:27:10.149Z,5.30
2022-09-27T07:29:37.135Z,6.63
2022-09-27T07:32:04.216Z,6.90
2022-09-27T07:34:32.778Z,5.53
2022-09-27T07:37:03.902Z,5.50
2022-09-27T07:39:31.989Z,3.70
2022-09-27T07:41:58.865Z,4.50
2022-09-27T07:44:25.536Z,3.80
2022-09-27T07:47:30.761Z,3.20
2022-09-27T07:50:10.643Z,3.37
2022-09-27T07:52:53.366Z,3.80
2022-09-27T07:55:52.933Z,3.27
2022-09-27T07:58:22.565Z,3.90
2022-09-27T08:00:51.546Z,3.90
2022-09-27T08:03:18.371Z,3.47
2022-09-27T08:05:47.531Z,3.77
2022-09-27T08:08:16.455Z,3.47
2022-09-27T08:10:44.374Z,7.57
2022-09-27T08:13:12.108Z,8.20
2022-09-27T08:15:39.252Z,4.00
2022-09-27T08:18:09.277Z,4.33
2022-09-27T08:21:00.252Z,6.60
2022-09-27T08:23:50.019Z,3.13
2022-09-27T08:26:23.407Z,2.27
2022-09-27T08:29:02.613Z,4.87
2022-09-27T08:31:32.384Z,3.60
2022-09-27T08:33:59.075Z,5.20
2022-09-27T08:36:26.590Z,4.50
2022-09-27T08:38:57.561Z,6.17
2022-09-27T08:41:34.307Z,3.13
2022-09-27T08:44:25.752Z,3.10
2022-09-27T08:47:03.317Z,3.67
2022-09-27T08:49:51.412Z,4.20
2022-09-27T08:52:21.615Z,4.00
2022-09-27T08:54:50.219Z,5.03
2022-09-27T08:57:17.763Z,4.17
2022-09-27T09:00:12.778Z,5.67
2022-09-27T09:02:42.208Z,4.53
2022-09-27T09:05:15.427Z,4.97
2022-09-27T09:07:50.998Z,4.60
2022-09-27T09:10:44.805Z,5.17
2022-09-27T09:13:34.607Z,4.27
2022-09-27T09:16:33.178Z,4.43
2022-09-27T09:19:21.727Z,5.93
2022-09-27T09:22:32.553Z,4.07
2022-09-27T09:25:45.752Z,3.90
2022-09-27T09:28:51.276Z,3.40
2022-09-27T09:31:48.177Z,4.23
2022-09-27T09:34:32.755Z,3.23
2022-09-27T09:37:11.757Z,5.13
2022-09-27T09:39:49.918Z,4.00
2022-09-27T09:42:26.962Z,3.70
2022-09-27T09:45:01.176Z,4.10
2022-09-27T09:47:47.147Z,3.00
2022-09-27T09:50:22.468Z,4.87
2022-09-27T09:52:59.419Z,4.77
2022-09-27T09:55:31.372Z,3.50
2022-09-27T09:58:22.045Z,3.13
2022-09-27T10:00:58.704Z,4.43
2022-09-27T10:03:25.424Z,3.30
2022-09-27T10:05:52.401Z,6.43
2022-09-27T10:08:22.142Z,2.90
2022-09-27T10:10:56.775Z,4.33
2022-09-27T10:13:46.563Z,4.33
2022-09-27T10:16:17.503Z,3.37
2022-09-27T10:18:50.035Z,3.40
2022-09-27T10:21:20.259Z,3.50
2022-09-27T10:24:06.453Z,2.90
2022-09-27T10:27:01.229Z,3.10
2022-09-27T10:29:38.012Z,3.10
2022-09-27T10:32:25.357Z,3.33
2022-09-27T10:35:36.646Z,3.20
2022-09-27T10:38:17.124Z,3.07
2022-09-27T10:40:43.975Z,3.70
2022-09-27T10:43:31.154Z,3.27
2022-09-27T10:46:31.546Z,3.50
2022-09-27T10:49:29.955Z,2.80
2022-09-27T10:52:20.369Z,2.57
2022-09-27T10:54:55.824Z,3.50
2022-09-27T10:57:32.057Z,4.10
2022-09-27T11:00:23.367Z,2.90
2022-09-27T11:02:56.451Z,3.30
2022-09-27T11:05:29.623Z,2.97
2022-09-27T11:08:02.998Z,2.97
2022-09-27T11:10:42.790Z,2.90
2022-09-27T11:13:18.699Z,2.80
2022-09-27T11:16:15.745Z,3.00
2022-09-27T11:19:15.281Z,4.00
2022-09-27T11:22:14.846Z,3.27
2022-09-27T11:25:04.453Z,3.90
2022-09-27T11:27:56.833Z,3.10
2022-09-27T11:30:57.771Z,4.23
2022-09-27T11:34:06.321Z,4.17
2022-09-27T11:37:13.168Z,5.07
2022-09-27T11:40:06.543Z,4.60
2022-09-27T11:43:25.453Z,5.57
2022-09-27T11:46:20.777Z,4.90
2022-09-27T11:49:02.028Z,6.00
2022-09-27T11:51:56.791Z,6.00
2022-09-27T11:54:59.781Z,7.40
2022-09-27T11:57:35.647Z,7.47
2022-09-27T12:00:16.113Z,8.90
2022-09-27T12:03:09.474Z,6.20
2022-09-27T12:05:57.458Z,8.10
2022-09-27T12:08:32.888Z,8.27
2022-09-27T12:11:46.757Z,7.70
2022-09-27T12:14:36.911Z,8.20
2022-09-27T12:17:11.924Z,8.00
2022-09-27T12:19:43.228Z,8.27
2022-09-27T12:22:46.741Z,7.23
2022-09-27T12:25:20.497Z,6.80
2022-09-27T12:28:19.444Z,6.30
2022-09-27T12:31:05.375Z,10.80
2022-09-27T12:34:04.929Z,6.90
2022-09-27T12:36:38.751Z,6.40
2022-09-27T12:39:14.062Z,6.63
2022-09-27T12:42:02.042Z,5.53
2022-09-27T12:44:43.128Z,5.60
2022-09-27T12:47:39.068Z,5.33
2022-09-27T12:50:13.465Z,5.50
2022-09-27T12:52:50.047Z,5.70
2022-09-27T12:55:27.688Z,5.33
2022-09-27T12:58:31.139Z,6.63
2022-09-27T13:01:19.368Z,5.97
2022-09-27T13:04:14.046Z,5.30
2022-09-27T13:06:59.677Z,5.30
2022-09-27T13:09:51.730Z,5.10
2022-09-27T13:12:26.201Z,4.13
2022-09-27T13:15:02.019Z,3.60
2022-09-27T13:17:40.294Z,4.57
2022-09-27T13:20:27.683Z,3.93
2022-09-27T13:22:55.157Z,3.73
2022-09-27T13:25:55.625Z,2.10
2022-09-27T13:28:52.206Z,1.33
2022-09-27T13:31:59.859Z,1.80
2022-09-27T13:34:56.446Z,3.17
2022-09-27T13:37:39.901Z,2.30
2022-09-27T13:40:23.919Z,2.80
2022-09-27T13:43:17.738Z,2.80
2022-09-27T13:45:57.066Z,2.97
2022-09-27T13:49:02.359Z,3.20
2022-09-27T13:51:59.941Z,2.80
2022-09-27T13:54:54.879Z,3.33
2022-09-27T13:57:40.574Z,4.20
2022-09-27T14:00:14.487Z,3.93
2022-09-27T14:03:02.293Z,4.90
2022-09-27T14:05:47.383Z,4.20
2022-09-27T14:08:34.239Z,4.27
2022-09-27T14:11:12.275Z,3.87
2022-09-27T14:13:40.845Z,4.43
2022-09-27T14:16:17.289Z,5.40
2022-09-27T14:18:53.152Z,4.00
2022-09-27T14:21:38.953Z,5.80
2022-09-27T14:24:36.437Z,3.83
2022-09-27T14:27:20.896Z,4.23
2022-09-27T14:30:02.516Z,3.40
2022-09-27T14:32:34.536Z,3.37
2022-09-27T14:35:34.823Z,3.50
2022-09-27T14:38:20.624Z,4.07
2022-09-27T14:40:57.867Z,3.40
2022-09-27T14:43:25.737Z,3.57
2022-09-27T14:45:57.657Z,4.70
2022-09-27T14:48:32.657Z,2.40
2022-09-27T14:51:06.142Z,2.80
2022-09-27T14:53:58.197Z,4.37
2022-09-27T14:56:34.509Z,4.63
2022-09-27T14:59:10.994Z,2.83
2022-09-27T15:01:39.684Z,4.20
2022-09-27T15:04:13.733Z,2.00
2022-09-27T15:06:41.897Z,2.60
2022-09-27T15:09:14.286Z,2.10
2022-09-27T15:11:41.896Z,2.60
2022-09-27T15:14:16.044Z,1.90
2022-09-27T15:16:44.867Z,2.43
2022-09-27T15:19:26.891Z,1.83
2022-09-27T15:21:54.183Z,2.00
2022-09-27T15:24:37.024Z,1.47
2022-09-27T15:27:04.876Z,1.60
2022-09-27T15:29:32.038Z,1.50
2022-09-27T15:32:06.683Z,1.80
2022-09-27T15:34:35.320Z,3.10
2022-09-27T15:37:04.964Z,2.30
2022-09-27T15:39:39.189Z,1.57
2022-09-27T15:42:13.544Z,1.80
2022-09-27T15:44:47.454Z,2.37
2022-09-27T15:47:32.552Z,3.03
2022-09-27T15:50:00.025Z,2.80
2022-09-27T15:52:51.081Z,3.03
2022-09-27T15:55:25.107Z,2.63
2022-09-27T15:57:59.146Z,2.30
2022-09-27T16:00:26.659Z,3.80
2022-09-27T16:02:56.498Z,2.47
2022-09-27T16:05:27.132Z,2.33
2022-09-27T16:07:53.813Z,2.97
2022-09-27T16:10:23.473Z,2.97
2022-09-27T16:12:50.880Z,1.93
2022-09-27T16:15:17.647Z,2.50
2022-09-27T16:17:44.256Z,2.03
2022-09-27T16:20:19.398Z,2.53
2022-09-27T16:22:45.995Z,2.40
2022-09-27T16:25:12.875Z,2.40
2022-09-27T16:27:39.909Z,1.80
2022-09-27T16:30:08.215Z,2.17
2022-09-27T16:32:39.987Z,2.47
2022-09-27T16:35:07.115Z,2.60
2022-09-27T16:37:34.445Z,24.20
2022-09-27T16:40:01.316Z,3.90
2022-09-27T16:42:27.880Z,5.00
2022-09-27T16:44:54.463Z,6.53
2022-09-27T16:47:21.203Z,6.73
2022-09-27T16:50:06.584Z,4.70
2022-09-27T16:52:33.836Z,4.27
2022-09-27T16:55:00.973Z,4.20
2022-09-27T16:57:33.484Z,3.90
2022-09-27T17:00:05.002Z,3.20
2022-09-27T17:02:32.537Z,3.17
2022-09-27T17:04:59.115Z,3.87
2022-09-27T17:07:25.752Z,5.00
2022-09-27T17:09:52.320Z,4.63
2022-09-27T17:12:19.712Z,4.40
2022-09-27T17:14:46.319Z,3.93
2022-09-27T17:17:12.905Z,2.80
2022-09-27T17:19:39.530Z,2.43
2022-09-27T17:22:09.251Z,3.07
2022-09-27T17:24:36.225Z,2.53
2022-09-27T17:27:03.201Z,2.57
2022-09-27T17:29:30.860Z,2.90
2022-09-27T17:31:57.519Z,3.23
2022-09-27T17:34:24.213Z,3.63
2022-09-27T17:36:51.700Z,3.27
2022-09-27T17:39:23.179Z,2.80
2022-09-27T17:41:50.336Z,6.43
2022-09-27T17:44:18.527Z,2.50
2022-09-27T17:46:46.299Z,2.40
2022-09-27T17:49:32.961Z,3.10
2022-09-27T17:52:01.181Z,2.87
2022-09-27T17:54:28.094Z,2.83
2022-09-27T17:56:56.088Z,3.27
2022-09-27T17:59:22.830Z,2.93
2022-09-27T18:01:49.774Z,3.10
2022-09-27T18:04:18.483Z,3.43
2022-09-27T18:06:46.712Z,3.40
2022-09-27T18:09:16.153Z,3.40
2022-09-27T18:11:43.993Z,3.60
2022-09-27T18:14:10.995Z,3.47
2022-09-27T18:16:42.761Z,3.90
2022-09-27T18:19:12.680Z,4.50
2022-09-27T18:21:39.644Z,4.27
2022-09-27T18:24:06.780Z,4.80
2022-09-27T18:26:36.496Z,4.97
2022-09-27T18:29:06.277Z,4.33
2022-09-27T18:31:33.273Z,5.43
2022-09-27T18:34:00.148Z,5.40
2022-09-27T18:36:27.504Z,5.90
2022-09-27T18:38:56.766Z,5.23
2022-09-27T18:41:25.406Z,5.90
2022-09-27T18:43:57.849Z,5.40
2022-09-27T18:46:35.431Z,5.10
2022-09-27T18:49:04.493Z,5.60
2022-09-27T18:51:31.565Z,6.00
2022-09-27T18:54:00.392Z,5.97
2022-09-27T18:56:28.332Z,5.77
2022-09-27T18:58:55.551Z,7.13
2022-09-27T19:01:23.362Z,5.80
2022-09-27T19:03:50.163Z,7.10
2022-09-27T19:06:21.638Z,5.97
2022-09-27T19:08:53.921Z,5.03
2022-09-27T19:11:21.109Z,5.50
2022-09-27T19:13:52.017Z,5.53
2022-09-27T19:16:23.119Z,4.80
2022-09-27T19:18:50.320Z,5.10
2022-09-27T19:21:19.772Z,4.23
2022-09-27T19:23:46.557Z,4.60
2022-09-27T19:26:16.678Z,5.40
2022-09-27T19:28:44.721Z,6.23
2022-09-27T19:31:17.502Z,4.87
2022-09-27T19:33:44.316Z,5.60
2022-09-27T19:36:13.132Z,4.87
2022-09-27T19:38:40.242Z,4.40
2022-09-27T19:41:10.474Z,4.63
2022-09-27T19:43:37.422Z,4.83
2022-09-27T19:46:08.850Z,4.87
2022-09-27T19:48:37.212Z,4.70
2022-09-27T19:51:05.145Z,5.10
2022-09-27T19:53:33.497Z,4.53
2022-09-27T19:56:05.443Z,5.30
2022-09-27T19:58:33.471Z,5.50
2022-09-27T20:01:01.398Z,5.00
2022-09-27T20:03:28.903Z,5.80
2022-09-27T20:05:56.575Z,6.57
2022-09-27T20:08:23.385Z,6.97
2022-09-27T20:11:02.446Z,6.30
2022-09-27T20:13:32.861Z,6.20
2022-09-27T20:16:07.998Z,6.80
2022-09-27T20:18:40.175Z,5.83
2022-09-27T20:21:07.001Z,6.00
2022-09-27T20:23:34.734Z,5.23
2022-09-27T20:26:13.250Z,5.77
2022-09-27T20:28:45.182Z,5.40
2022-09-27T20:31:14.688Z,6.70
2022-09-27T20:33:41.703Z,5.63
2022-09-27T20:36:09.680Z,5.83
2022-09-27T20:38:36.297Z,5.00
2022-09-27T20:41:03.038Z,5.20
2022-09-27T20:43:31.429Z,4.57
2022-09-27T20:46:12.574Z,5.40
2022-09-27T20:48:40.040Z,5.20
2022-09-27T20:51:08.173Z,4.70
2022-09-27T20:53:35.180Z,4.60
2022-09-27T20:56:05.083Z,4.77
2022-09-27T20:58:32.338Z,4.17
2022-09-27T21:01:06.027Z,4.47
2022-09-27T21:03:34.315Z,4.20
2022-09-27T21:06:01.000Z,4.10
2022-09-27T21:08:33.096Z,4.47
2022-09-27T21:11:12.318Z,4.40
2022-09-27T21:13:40.272Z,4.17
2022-09-27T21:16:14.320Z,5.07
2022-09-27T21:18:41.748Z,4.23
2022-09-27T21:21:13.805Z,3.47
2022-09-27T21:23:44.852Z,4.00
2022-09-27T21:26:20.394Z,3.70
2022-09-27T21:28:52.385Z,3.63
2022-09-27T21:31:45.461Z,4.17
2022-09-27T21:34:12.138Z,3.77
2022-09-27T21:36:38.976Z,4.50
2022-09-27T21:39:08.290Z,4.37
2022-09-27T21:41:35.070Z,3.77
2022-09-27T21:44:05.762Z,4.10
2022-09-27T21:46:32.606Z,3.93
2022-09-27T21:49:01.743Z,3.53
2022-09-27T21:51:33.993Z,4.20
2022-09-27T21:54:02.767Z,5.37
2022-09-27T21:56:31.787Z,5.10
2022-09-27T21:58:58.643Z,7.33
2022-09-27T22:01:28.454Z,5.50
2022-09-27T22:03:55.618Z,5.40
2022-09-27T22:06:27.941Z,5.37
2022-09-27T22:08:55.903Z,5.53
2022-09-27T22:11:25.558Z,6.97
2022-09-27T22:13:52.421Z,5.47
2022-09-27T22:16:20.410Z,5.03
2022-09-27T22:18:51.717Z,5.60
2022-09-27T22:21:22.605Z,6.20
2022-09-27T22:23:57.416Z,6.00
2022-09-27T22:26:29.987Z,6.20
2022-09-27T22:28:57.204Z,6.90
2022-09-27T22:31:24.035Z,5.80
2022-09-27T22:33:56.432Z,6.67
2022-09-27T22:36:24.093Z,7.10
2022-09-27T22:38:51.476Z,5.60
2022-09-27T22:41:18.392Z,6.30
2022-09-27T22:43:45.054Z,6.00
2022-09-27T22:46:12.849Z,4.90
2022-09-27T22:48:39.889Z,5.83
2022-09-27T22:51:07.845Z,5.80
2022-09-27T22:53:34.906Z,5.63
2022-09-27T22:56:07.468Z,6.00
2022-09-27T22:58:35.700Z,6.73
2022-09-27T23:01:10.630Z,6.73
2022-09-27T23:03:37.355Z,7.03
2022-09-27T23:06:04.407Z,7.17
2022-09-27T23:08:35.565Z,6.67
2022-09-27T23:11:09.218Z,6.83
2022-09-27T23:13:38.716Z,7.07
2022-09-27T23:16:08.943Z,7.00
2022-09-27T23:18:36.159Z,7.57
2022-09-27T23:21:06.797Z,6.30
2022-09-27T23:23:35.370Z,6.83
2022-09-27T23:26:07.470Z,7.93
2022-09-27T23:28:35.025Z,7.13
2022-09-27T23:31:08.046Z,6.33
2022-09-27T23:33:37.228Z,7.70
2022-09-27T23:36:05.261Z,6.33
2022-09-27T23:38:32.505Z,6.30
2022-09-27T23:41:00.170Z,5.47
2022-09-27T23:43:27.164Z,5.60
2022-09-27T23:45:55.914Z,6.13
2022-09-27T23:48:23.890Z,6.80
2022-09-27T23:50:51.968Z,6.40
2022-09-27T23:53:22.786Z,7.30
2022-09-27T23:56:06.300Z,6.77
2022-09-27T23:58:37.155Z,8.33
